createdAt,value
2022-12-25T00:01:08.130Z,9.10
2022-12-25T00:03:37.533Z,9.10
2022-12-25T00:06:06.195Z,9.20
2022-12-25T00:08:34.532Z,9.20
2022-12-25T00:11:04.840Z,9.20
2022-12-25T00:13:34.372Z,9.30
2022-12-25T00:16:07.069Z,9.30
2022-12-25T00:18:35.026Z,9.20
2022-12-25T00:21:05.213Z,9.30
2022-12-25T00:23:34.368Z,9.50
2022-12-25T00:26:05.528Z,9.50
2022-12-25T00:28:35.857Z,9.60
2022-12-25T00:31:06.766Z,9.60
2022-12-25T00:33:36.633Z,9.60
2022-12-25T00:36:06.151Z,9.70
2022-12-25T00:38:35.190Z,9.70
2022-12-25T00:41:06.585Z,9.70
2022-12-25T00:43:36.079Z,9.70
2022-12-25T00:46:07.151Z,9.70
2022-12-25T00:48:36.074Z,9.70
2022-12-25T00:51:06.530Z,9.70
2022-12-25T00:53:34.488Z,9.80
2022-12-25T00:56:04.238Z,9.70
2022-12-25T00:58:34.309Z,9.70
2022-12-25T01:01:04.482Z,9.70
2022-12-25T01:03:32.418Z,9.80
2022-12-25T01:06:01.829Z,9.80
2022-12-25T01:08:32.354Z,9.80
2022-12-25T01:11:00.984Z,9.80
2022-12-25T01:13:29.709Z,9.80
2022-12-25T01:15:57.916Z,9.80
2022-12-25T01:18:27.201Z,9.80
2022-12-25T01:20:55.015Z,9.80
2022-12-25T01:23:22.864Z,9.80
2022-12-25T01:25:50.705Z,9.80
2022-12-25T01:28:18.568Z,9.80
2022-12-25T01:30:50.199Z,9.80
2022-12-25T01:33:18.058Z,9.80
2022-12-25T01:35:47.372Z,9.80
2022-12-25T01:38:15.173Z,9.80
2022-12-25T01:40:43.130Z,9.80
2022-12-25T01:43:24.132Z,9.80
2022-12-25T01:45:52.748Z,9.80
2022-12-25T01:48:24.423Z,9.90
2022-12-25T01:50:56.784Z,9.80
2022-12-25T01:53:25.695Z,9.90
2022-12-25T01:55:57.821Z,9.90
2022-12-25T01:58:26.548Z,9.90
2022-12-25T02:00:55.130Z,9.90
2022-12-25T02:03:23.543Z,9.80
2022-12-25T02:05:54.050Z,9.80
2022-12-25T02:08:23.019Z,9.70
2022-12-25T02:10:50.872Z,9.70
2022-12-25T02:13:20.570Z,9.60
2022-12-25T02:15:56.934Z,9.70
2022-12-25T02:18:35.951Z,9.70
2022-12-25T02:21:47.982Z,9.60
2022-12-25T02:24:40.263Z,9.60
2022-12-25T02:27:23.010Z,9.60
2022-12-25T02:29:59.549Z,9.60
2022-12-25T02:32:31.252Z,9.60
2022-12-25T02:35:04.591Z,9.50
2022-12-25T02:37:39.654Z,9.50
2022-12-25T02:40:12.139Z,9.50
2022-12-25T02:43:06.609Z,9.40
2022-12-25T02:45:58.110Z,9.50
2022-12-25T02:48:52.690Z,9.50
2022-12-25T02:51:41.431Z,9.50
2022-12-25T02:54:30.415Z,9.40
2022-12-25T02:57:18.009Z,9.40
2022-12-25T03:00:06.998Z,9.40
2022-12-25T03:02:54.310Z,9.40
2022-12-25T03:05:43.057Z,9.40
2022-12-25T03:08:16.644Z,9.30
2022-12-25T03:11:08.944Z,9.30
2022-12-25T03:13:42.430Z,9.30
2022-12-25T03:16:28.518Z,9.30
2022-12-25T03:18:59.544Z,9.30
2022-12-25T03:21:45.264Z,9.30
2022-12-25T03:24:30.733Z,9.30
2022-12-25T03:26:58.701Z,9.30
2022-12-25T03:29:47.524Z,9.30
2022-12-25T03:32:26.556Z,9.30
2022-12-25T03:35:20.003Z,9.20
2022-12-25T03:38:22.928Z,9.20
2022-12-25T03:41:16.559Z,9.10
2022-12-25T03:44:10.644Z,9.00
2022-12-25T03:47:03.785Z,8.90
2022-12-25T03:49:56.491Z,9.10
2022-12-25T03:52:47.382Z,9.20
2022-12-25T03:55:34.341Z,9.30
2022-12-25T03:58:19.844Z,9.30
2022-12-25T04:01:05.429Z,9.20
2022-12-25T04:03:50.949Z,9.00
2022-12-25T04:06:36.230Z,9.00
2022-12-25T04:09:23.408Z,9.00
2022-12-25T04:12:08.584Z,9.10
2022-12-25T04:14:54.585Z,9.10
2022-12-25T04:17:40.015Z,9.20
2022-12-25T04:20:26.737Z,9.20
2022-12-25T04:23:12.242Z,9.20
2022-12-25T04:26:13.529Z,9.20
2022-12-25T04:28:59.030Z,9.20
2022-12-25T04:31:44.495Z,9.20
2022-12-25T04:34:29.935Z,9.20
2022-12-25T04:36:57.748Z,9.20
2022-12-25T04:39:25.530Z,9.10
2022-12-25T04:41:54.719Z,9.00
2022-12-25T04:44:22.601Z,9.00
2022-12-25T04:46:50.591Z,9.00
2022-12-25T04:49:18.461Z,9.00
2022-12-25T04:51:46.372Z,9.00
2022-12-25T04:54:14.250Z,9.00
2022-12-25T04:56:45.853Z,9.00
2022-12-25T04:59:15.445Z,9.00
2022-12-25T05:01:43.492Z,9.00
2022-12-25T05:04:13.433Z,9.00
2022-12-25T05:06:45.006Z,9.00
2022-12-25T05:09:16.647Z,9.00
2022-12-25T05:11:45.836Z,9.00
2022-12-25T05:14:15.053Z,9.00
2022-12-25T05:16:43.086Z,9.10
2022-12-25T05:19:11.651Z,9.20
2022-12-25T05:21:39.517Z,9.10
2022-12-25T05:24:07.928Z,9.10
2022-12-25T05:26:35.813Z,9.10
2022-12-25T05:29:03.596Z,9.10
2022-12-25T05:31:32.959Z,9.10
2022-12-25T05:34:00.817Z,9.20
2022-12-25T05:36:28.738Z,9.10
2022-12-25T05:38:56.568Z,9.10
2022-12-25T05:41:26.802Z,9.10
2022-12-25T05:43:56.920Z,9.10
2022-12-25T05:46:24.808Z,9.10
2022-12-25T05:48:54.051Z,9.10
2022-12-25T05:51:21.887Z,9.10
2022-12-25T05:53:49.949Z,9.20
2022-12-25T05:56:19.188Z,9.20
2022-12-25T05:58:48.217Z,9.20
2022-12-25T06:01:23.072Z,9.20
2022-12-25T06:03:53.603Z,9.20
2022-12-25T06:06:21.488Z,9.30
2022-12-25T06:08:50.537Z,9.20
2022-12-25T06:11:19.760Z,9.20
2022-12-25T06:13:53.824Z,9.20
2022-12-25T06:16:22.972Z,9.30
2022-12-25T06:18:53.854Z,9.30
2022-12-25T06:21:21.733Z,9.40
2022-12-25T06:23:49.821Z,9.40
2022-12-25T06:26:20.628Z,9.40
2022-12-25T06:28:52.176Z,9.40
2022-12-25T06:31:24.088Z,9.50
2022-12-25T06:33:54.412Z,9.50
2022-12-25T06:36:25.823Z,9.50
2022-12-25T06:38:55.333Z,9.50
2022-12-25T06:41:25.644Z,9.50
2022-12-25T06:43:56.505Z,9.50
2022-12-25T06:46:27.441Z,9.60
2022-12-25T06:48:58.804Z,9.70
2022-12-25T06:51:29.386Z,9.70
2022-12-25T06:53:59.385Z,9.70
2022-12-25T06:56:29.411Z,9.60
2022-12-25T06:59:00.743Z,9.60
2022-12-25T07:01:34.493Z,9.60
2022-12-25T07:04:08.521Z,9.60
2022-12-25T07:06:37.500Z,9.50
2022-12-25T07:09:06.560Z,9.50
2022-12-25T07:11:35.567Z,9.40
2022-12-25T07:14:04.881Z,9.40
2022-12-25T07:16:33.821Z,9.40
2022-12-25T07:19:02.831Z,9.30
2022-12-25T07:21:33.592Z,9.30
2022-12-25T07:24:02.564Z,9.30
2022-12-25T07:26:33.883Z,9.30
2022-12-25T07:29:02.951Z,9.30
2022-12-25T07:31:32.385Z,9.30
2022-12-25T07:34:01.381Z,9.30
2022-12-25T07:36:30.825Z,9.20
2022-12-25T07:39:03.525Z,9.20
2022-12-25T07:41:32.437Z,9.30
2022-12-25T07:44:01.274Z,9.40
2022-12-25T07:46:30.189Z,9.60
2022-12-25T07:48:59.626Z,9.80
2022-12-25T07:51:30.032Z,9.80
2022-12-25T07:53:58.093Z,9.80
2022-12-25T07:56:27.400Z,9.80
2022-12-25T07:58:55.229Z,9.80
2022-12-25T08:01:25.325Z,9.80
2022-12-25T08:03:55.355Z,9.80
2022-12-25T08:06:26.664Z,9.80
2022-12-25T08:08:54.553Z,9.80
2022-12-25T08:11:22.434Z,9.90
2022-12-25T08:13:52.967Z,9.90
2022-12-25T08:16:22.620Z,9.90
2022-12-25T08:18:50.527Z,9.90
2022-12-25T08:21:19.690Z,9.80
2022-12-25T08:23:49.280Z,9.80
2022-12-25T08:26:19.146Z,9.80
2022-12-25T08:28:47.374Z,9.90
2022-12-25T08:31:18.353Z,9.80
2022-12-25T08:33:46.777Z,9.80
2022-12-25T08:36:14.644Z,9.80
2022-12-25T08:38:42.925Z,9.80
2022-12-25T08:41:12.960Z,9.80
2022-12-25T08:43:40.907Z,9.80
2022-12-25T08:46:09.963Z,9.80
2022-12-25T08:48:42.264Z,9.80
2022-12-25T08:51:14.478Z,9.80
2022-12-25T08:53:42.807Z,9.80
2022-12-25T08:56:10.781Z,9.90
2022-12-25T08:58:38.956Z,9.90
2022-12-25T09:01:07.627Z,9.90
2022-12-25T09:03:36.115Z,9.90
2022-12-25T09:06:07.138Z,9.90
2022-12-25T09:08:35.879Z,9.80
2022-12-25T09:11:04.321Z,9.90
2022-12-25T09:13:32.858Z,9.90
2022-12-25T09:16:01.111Z,10.00
2022-12-25T09:18:28.948Z,10.00
2022-12-25T09:21:00.733Z,10.10
2022-12-25T09:23:31.867Z,10.10
2022-12-25T09:25:59.994Z,10.20
2022-12-25T09:28:28.122Z,10.20
2022-12-25T09:30:56.767Z,10.30
2022-12-25T09:33:26.108Z,10.30
2022-12-25T09:35:55.300Z,10.30
2022-12-25T09:38:25.366Z,10.40
2022-12-25T09:41:02.152Z,10.50
2022-12-25T09:43:32.177Z,10.60
2022-12-25T09:46:03.167Z,10.60
2022-12-25T09:48:34.223Z,10.70
2022-12-25T09:51:09.892Z,10.80
2022-12-25T09:53:41.377Z,10.90
2022-12-25T09:56:20.239Z,10.90
2022-12-25T09:58:49.517Z,10.90
2022-12-25T10:01:28.612Z,10.80
2022-12-25T10:04:16.988Z,10.70
2022-12-25T10:06:55.656Z,10.70
2022-12-25T10:09:55.677Z,10.70
2022-12-25T10:12:40.090Z,10.70
2022-12-25T10:15:32.507Z,10.70
2022-12-25T10:18:34.937Z,10.90
2022-12-25T10:21:12.666Z,11.10
2022-12-25T10:23:45.476Z,11.30
2022-12-25T10:26:17.169Z,11.40
2022-12-25T10:28:52.928Z,11.50
2022-12-25T10:31:24.016Z,11.50
2022-12-25T10:33:53.839Z,11.50
2022-12-25T10:36:25.239Z,11.50
2022-12-25T10:38:54.905Z,11.60
2022-12-25T10:41:43.581Z,11.60
2022-12-25T10:44:21.677Z,11.50
2022-12-25T10:46:51.873Z,11.50
2022-12-25T10:49:24.686Z,11.40
2022-12-25T10:51:53.554Z,11.40
2022-12-25T10:54:26.714Z,11.40
2022-12-25T10:56:58.240Z,11.30
2022-12-25T10:59:30.639Z,11.30
2022-12-25T11:02:17.385Z,11.30
2022-12-25T11:04:48.624Z,11.40
2022-12-25T11:07:25.342Z,11.40
2022-12-25T11:10:02.710Z,11.50
2022-12-25T11:12:43.348Z,11.50
2022-12-25T11:18:25.574Z,11.50
2022-12-25T11:20:55.555Z,11.50
2022-12-25T11:23:26.213Z,11.50
2022-12-25T11:25:58.691Z,11.50
2022-12-25T11:28:27.929Z,11.40
2022-12-25T11:31:00.242Z,11.40
2022-12-25T11:33:35.046Z,11.40
2022-12-25T11:36:09.590Z,11.40
2022-12-25T11:38:37.546Z,11.40
2022-12-25T11:41:06.895Z,11.50
2022-12-25T11:43:39.122Z,11.60
2022-12-25T11:46:14.332Z,11.60
2022-12-25T11:48:48.260Z,11.50
2022-12-25T11:51:17.260Z,11.60
2022-12-25T11:53:51.869Z,11.60
2022-12-25T11:56:24.142Z,11.60
2022-12-25T11:58:54.837Z,11.60
2022-12-25T12:01:31.540Z,11.80
2022-12-25T12:04:01.971Z,11.90
2022-12-25T12:06:38.955Z,12.00
2022-12-25T12:09:25.542Z,12.20
2022-12-25T12:12:01.940Z,12.20
2022-12-25T12:14:44.453Z,12.30
2022-12-25T12:17:14.268Z,12.30
2022-12-25T12:19:43.543Z,12.30
2022-12-25T12:22:19.526Z,12.20
2022-12-25T12:24:53.770Z,12.30
2022-12-25T12:27:26.243Z,12.30
2022-12-25T12:29:56.771Z,12.40
2022-12-25T12:32:37.535Z,12.40
2022-12-25T12:35:18.607Z,12.50
2022-12-25T12:37:50.194Z,12.60
2022-12-25T12:40:34.130Z,12.60
2022-12-25T12:43:02.613Z,12.70
2022-12-25T12:45:33.782Z,12.70
2022-12-25T12:48:02.597Z,12.70
2022-12-25T12:50:37.836Z,12.70
2022-12-25T12:53:28.645Z,12.80
2022-12-25T12:55:57.383Z,12.90
2022-12-25T12:58:33.396Z,13.00
2022-12-25T13:01:12.244Z,13.00
2022-12-25T13:03:57.268Z,13.00
2022-12-25T13:06:34.711Z,13.00
2022-12-25T13:09:14.055Z,13.10
2022-12-25T13:11:45.239Z,13.10
2022-12-25T13:14:18.783Z,13.20
2022-12-25T13:16:48.510Z,13.30
2022-12-25T13:19:21.753Z,13.30
2022-12-25T13:21:55.977Z,13.40
2022-12-25T13:24:25.945Z,13.40
2022-12-25T13:26:54.013Z,13.40
2022-12-25T13:29:30.563Z,13.50
2022-12-25T13:31:59.330Z,13.50
2022-12-25T13:34:32.210Z,13.40
2022-12-25T13:37:08.335Z,13.40
2022-12-25T13:39:40.211Z,13.40
2022-12-25T13:42:09.940Z,13.40
2022-12-25T13:44:47.340Z,13.40
2022-12-25T13:47:22.107Z,13.40
2022-12-25T13:49:51.501Z,13.40
2022-12-25T13:52:22.424Z,13.40
2022-12-25T13:54:59.191Z,13.40
2022-12-25T13:57:31.200Z,13.40
2022-12-25T14:00:00.006Z,13.40
2022-12-25T14:02:32.556Z,13.40
2022-12-25T14:05:00.635Z,13.40
2022-12-25T14:07:30.296Z,13.40
2022-12-25T14:10:02.559Z,13.40
2022-12-25T14:12:32.736Z,13.40
2022-12-25T14:15:01.345Z,13.50
2022-12-25T14:17:29.478Z,13.50
2022-12-25T14:20:05.717Z,13.60
2022-12-25T14:22:38.517Z,13.60
2022-12-25T14:25:15.971Z,13.60
2022-12-25T14:27:49.886Z,13.60
2022-12-25T14:30:18.593Z,13.60
2022-12-25T14:32:50.820Z,13.50
2022-12-25T14:35:23.280Z,13.50
2022-12-25T14:38:01.147Z,13.50
2022-12-25T14:40:31.400Z,13.50
2022-12-25T14:43:01.154Z,13.50
2022-12-25T14:45:32.202Z,13.50
2022-12-25T14:48:04.247Z,13.50
2022-12-25T14:50:36.403Z,13.40
2022-12-25T14:53:07.408Z,13.40
2022-12-25T14:55:35.609Z,13.40
2022-12-25T14:58:06.213Z,13.40
2022-12-25T15:00:36.567Z,13.30
2022-12-25T15:03:07.064Z,13.30
2022-12-25T15:05:37.221Z,13.20
2022-12-25T15:08:23.225Z,13.20
2022-12-25T15:11:01.102Z,13.10
2022-12-25T15:13:30.428Z,13.00
2022-12-25T15:16:02.188Z,12.90
2022-12-25T15:18:35.225Z,12.80
2022-12-25T15:21:03.571Z,12.80
2022-12-25T15:23:32.870Z,12.70
2022-12-25T15:26:00.813Z,12.60
2022-12-25T15:28:28.708Z,12.60
2022-12-25T15:30:56.657Z,12.60
2022-12-25T15:33:24.615Z,12.60
2022-12-25T15:35:52.565Z,12.50
2022-12-25T15:38:20.506Z,12.50
2022-12-25T15:40:49.793Z,12.50
2022-12-25T15:43:39.919Z,12.50
2022-12-25T15:46:06.738Z,12.50
2022-12-25T15:48:34.693Z,12.40
2022-12-25T15:51:03.097Z,12.40
2022-12-25T15:53:31.072Z,12.40
2022-12-25T15:56:00.312Z,12.40
2022-12-25T15:58:28.225Z,12.30
2022-12-25T16:00:56.185Z,12.30
2022-12-25T16:03:24.091Z,12.40
2022-12-25T16:05:52.019Z,12.30
2022-12-25T16:08:19.988Z,12.30
2022-12-25T16:10:47.942Z,12.30
2022-12-25T16:13:17.211Z,12.30
2022-12-25T16:15:45.271Z,12.20
2022-12-25T16:18:13.287Z,12.10
2022-12-25T16:20:41.283Z,12.10
2022-12-25T16:23:09.175Z,12.00
2022-12-25T16:25:37.128Z,12.00
2022-12-25T16:28:06.162Z,12.00
2022-12-25T16:30:35.572Z,11.90
2022-12-25T16:33:03.559Z,11.80
2022-12-25T16:35:31.652Z,11.70
2022-12-25T16:38:00.140Z,11.70
2022-12-25T16:40:28.248Z,11.70
2022-12-25T16:42:56.837Z,11.70
2022-12-25T16:45:24.771Z,11.70
2022-12-25T16:47:54.050Z,11.70
2022-12-25T16:50:22.338Z,11.60
2022-12-25T16:52:50.208Z,11.60
2022-12-25T16:55:18.415Z,11.70
2022-12-25T16:57:47.732Z,11.70
2022-12-25T17:00:16.602Z,11.70
2022-12-25T17:02:45.058Z,11.70
2022-12-25T17:05:14.493Z,11.70
2022-12-25T17:07:43.023Z,11.70
2022-12-25T17:10:12.390Z,11.70
2022-12-25T17:12:40.578Z,11.70
2022-12-25T17:15:09.345Z,11.70
2022-12-25T17:17:37.177Z,11.60
2022-12-25T17:20:05.766Z,11.60
2022-12-25T17:22:35.073Z,11.60
2022-12-25T17:25:03.359Z,11.50
2022-12-25T17:27:31.273Z,11.50
2022-12-25T17:29:59.135Z,11.50
2022-12-25T17:32:27.108Z,11.40
2022-12-25T17:34:54.941Z,11.40
2022-12-25T17:37:24.874Z,11.40
2022-12-25T17:39:54.129Z,11.40
2022-12-25T17:42:22.077Z,11.40
2022-12-25T17:44:49.974Z,11.40
2022-12-25T17:47:17.800Z,11.30
2022-12-25T17:49:45.725Z,11.20
2022-12-25T17:52:13.612Z,11.10
2022-12-25T17:54:41.483Z,11.00
2022-12-25T17:57:10.962Z,11.00
2022-12-25T17:59:38.911Z,10.90
2022-12-25T18:02:07.557Z,10.90
2022-12-25T18:04:35.590Z,10.90
2022-12-25T18:07:04.097Z,10.80
2022-12-25T18:09:32.021Z,10.80
2022-12-25T18:12:00.034Z,10.80
2022-12-25T18:14:29.313Z,10.80
2022-12-25T18:16:57.210Z,10.80
2022-12-25T18:19:25.087Z,10.90
2022-12-25T18:21:52.949Z,10.90
2022-12-25T18:24:20.912Z,10.80
2022-12-25T18:26:49.121Z,10.80
2022-12-25T18:29:17.150Z,10.80
2022-12-25T18:31:46.542Z,10.80
2022-12-25T18:34:14.614Z,10.70
2022-12-25T18:36:42.597Z,10.70
2022-12-25T18:39:12.304Z,10.60
2022-12-25T18:42:01.039Z,10.60
2022-12-25T18:44:31.400Z,10.70
2022-12-25T18:47:00.697Z,10.90
2022-12-25T18:49:28.554Z,11.20
2022-12-25T18:52:48.201Z,11.60
2022-12-25T18:54:44.618Z,12.00
2022-12-25T18:57:12.640Z,12.30
2022-12-25T18:59:41.830Z,12.40
2022-12-25T19:02:12.970Z,12.50
2022-12-25T19:04:43.392Z,12.50
2022-12-25T19:07:11.658Z,12.80
2022-12-25T19:09:39.580Z,13.00
2022-12-25T19:12:07.950Z,13.10
2022-12-25T19:14:47.961Z,13.10
2022-12-25T19:17:17.793Z,13.10
2022-12-25T19:19:46.139Z,13.10
2022-12-25T19:22:14.139Z,13.10
2022-12-25T19:24:42.185Z,13.10
2022-12-25T19:27:10.334Z,13.10
2022-12-25T19:29:38.373Z,13.10
2022-12-25T19:32:06.971Z,13.10
2022-12-25T19:34:39.302Z,13.00
2022-12-25T19:37:07.701Z,13.00
2022-12-25T19:39:35.812Z,13.00
2022-12-25T19:42:05.616Z,12.90
2022-12-25T19:44:33.882Z,12.90
2022-12-25T19:47:01.999Z,12.80
2022-12-25T19:49:30.077Z,12.90
2022-12-25T19:52:01.726Z,13.00
2022-12-25T19:54:35.787Z,13.20
2022-12-25T19:57:03.938Z,13.30
2022-12-25T20:03:21.799Z,13.40
2022-12-25T20:05:49.960Z,13.40
2022-12-25T20:08:22.398Z,13.40
2022-12-25T20:10:51.039Z,13.50
2022-12-25T20:13:19.573Z,13.60
2022-12-25T20:16:02.059Z,13.60
2022-12-25T20:18:30.322Z,13.60
2022-12-25T20:21:01.905Z,13.60
2022-12-25T20:23:31.631Z,13.60
2022-12-25T20:26:00.897Z,13.60
2022-12-25T20:28:30.066Z,13.60
2022-12-25T20:30:58.442Z,13.60
2022-12-25T20:33:26.455Z,13.60
2022-12-25T20:35:55.142Z,13.50
2022-12-25T20:38:23.144Z,13.50
2022-12-25T20:43:52.081Z,13.60
2022-12-25T20:46:20.210Z,13.60
2022-12-25T20:48:48.139Z,13.50
2022-12-25T20:51:18.154Z,13.50
2022-12-25T20:53:46.983Z,13.50
2022-12-25T20:56:18.721Z,13.50
2022-12-25T20:58:46.700Z,13.60
2022-12-25T21:01:16.320Z,13.70
2022-12-25T21:03:45.071Z,13.60
2022-12-25T21:06:14.068Z,13.60
2022-12-25T21:08:42.231Z,13.60
2022-12-25T21:11:11.334Z,13.60
2022-12-25T21:13:42.669Z,13.60
2022-12-25T21:16:13.224Z,13.60
2022-12-25T21:18:41.207Z,13.60
2022-12-25T21:21:10.151Z,13.60
2022-12-25T21:23:39.551Z,13.70
2022-12-25T21:26:12.386Z,13.70
2022-12-25T21:28:41.686Z,13.70
2022-12-25T21:31:10.361Z,13.70
2022-12-25T21:33:52.866Z,13.70
2022-12-25T21:36:26.987Z,13.60
2022-12-25T21:38:58.038Z,13.60
2022-12-25T21:41:27.348Z,13.60
2022-12-25T21:43:57.567Z,13.60
2022-12-25T21:46:26.141Z,13.60
2022-12-25T21:48:55.130Z,13.70
2022-12-25T21:51:43.507Z,13.70
2022-12-25T21:54:11.889Z,13.60
2022-12-25T21:56:44.569Z,13.60
2022-12-25T21:59:16.794Z,13.60
2022-12-25T22:01:45.653Z,13.60
2022-12-25T22:04:15.870Z,13.60
2022-12-25T22:07:01.832Z,13.60
2022-12-25T22:09:30.089Z,13.50
2022-12-25T22:12:15.774Z,13.50
2022-12-25T22:14:55.444Z,13.50
2022-12-25T22:17:44.102Z,13.50
2022-12-25T22:20:14.492Z,13.50
2022-12-25T22:22:42.464Z,13.50
2022-12-25T22:25:11.055Z,13.50
2022-12-25T22:27:40.314Z,13.50
2022-12-25T22:30:12.000Z,13.50
2022-12-25T22:32:40.082Z,13.50
2022-12-25T22:35:09.252Z,13.50
2022-12-25T22:37:37.201Z,13.50
2022-12-25T22:40:06.617Z,13.60
2022-12-25T22:42:35.083Z,13.70
2022-12-25T22:45:03.205Z,13.70
2022-12-25T22:47:32.641Z,13.60
2022-12-25T22:50:00.628Z,13.70
2022-12-25T22:52:28.615Z,13.60
2022-12-25T22:54:56.570Z,13.70
2022-12-25T22:57:24.522Z,13.70
2022-12-25T22:59:53.175Z,13.60
2022-12-25T23:02:21.648Z,13.60
2022-12-25T23:04:51.038Z,13.60
2022-12-25T23:07:19.168Z,13.60
2022-12-25T23:09:47.217Z,13.70
2022-12-25T23:12:29.154Z,13.70
2022-12-25T23:14:57.221Z,13.70
2022-12-25T23:17:42.442Z,13.70
2022-12-25T23:20:33.390Z,13.70
2022-12-25T23:23:19.596Z,13.70
2022-12-25T23:26:05.066Z,13.80
2022-12-25T23:28:50.689Z,13.70
2022-12-25T23:31:19.146Z,13.70
2022-12-25T23:33:47.028Z,13.60
2022-12-25T23:36:16.255Z,13.60
2022-12-25T23:38:44.170Z,13.60
2022-12-25T23:41:12.004Z,13.60
2022-12-25T23:43:39.899Z,13.60
2022-12-25T23:46:08.251Z,13.60
2022-12-25T23:48:36.164Z,13.50
2022-12-25T23:51:04.887Z,13.50
2022-12-25T23:53:36.790Z,13.50
2022-12-25T23:56:05.839Z,13.40
2022-12-25T23:58:34.780Z,13.30
